createdAt,value
2022-08-29T00:00:19.224Z,19.60
2022-08-29T00:01:23.294Z,19.62
2022-08-29T00:02:27.982Z,19.60
2022-08-29T00:03:31.989Z,19.66
2022-08-29T00:04:34.463Z,19.66
2022-08-29T00:05:38.185Z,19.69
2022-08-29T00:06:42.281Z,19.79
2022-08-29T00:07:44.565Z,19.92
2022-08-29T00:08:46.589Z,19.98
2022-08-29T00:09:48.665Z,20.08
2022-08-29T00:10:50.909Z,20.13
2022-08-29T00:11:53.057Z,20.13
2022-08-29T00:12:57.820Z,20.14
2022-08-29T00:14:00.241Z,20.18
2022-08-29T00:15:04.178Z,20.20
2022-08-29T00:16:07.305Z,20.22
2022-08-29T00:17:09.486Z,20.27
2022-08-29T00:18:13.767Z,20.35
2022-08-29T00:19:16.151Z,20.27
2022-08-29T00:20:22.964Z,20.18
2022-08-29T00:21:26.711Z,20.07
2022-08-29T00:22:28.772Z,20.03
2022-08-29T00:23:31.231Z,19.97
2022-08-29T00:24:33.588Z,19.93
2022-08-29T00:25:36.318Z,19.85
2022-08-29T00:26:38.672Z,19.72
2022-08-29T00:27:41.128Z,19.67
2022-08-29T00:28:45.140Z,19.59
2022-08-29T00:29:47.755Z,19.60
2022-08-29T00:30:50.455Z,19.60
2022-08-29T00:31:52.564Z,19.66
2022-08-29T00:32:54.759Z,19.67
2022-08-29T00:33:56.832Z,19.74
2022-08-29T00:34:59.490Z,19.76
2022-08-29T00:36:01.673Z,19.85
2022-08-29T00:37:05.650Z,19.95
2022-08-29T00:38:11.256Z,19.97
2022-08-29T00:39:13.503Z,19.98
2022-08-29T00:40:20.019Z,19.95
2022-08-29T00:41:22.776Z,20.02
2022-08-29T00:42:25.039Z,20.20
2022-08-29T00:43:30.640Z,20.20
2022-08-29T00:44:32.847Z,20.23
2022-08-29T00:45:38.152Z,20.32
2022-08-29T00:46:43.856Z,20.34
2022-08-29T00:49:11.950Z,20.41
2022-08-29T00:50:18.634Z,20.27
2022-08-29T00:51:22.033Z,20.22
2022-08-29T00:52:33.480Z,20.08
2022-08-29T00:53:39.214Z,20.05
2022-08-29T00:54:44.264Z,19.94
2022-08-29T00:55:48.328Z,19.80
2022-08-29T00:57:00.054Z,19.73
2022-08-29T00:58:06.310Z,19.73
2022-08-29T00:59:14.816Z,19.68
2022-08-29T01:00:17.548Z,19.66
2022-08-29T01:01:20.337Z,19.63
2022-08-29T01:02:22.936Z,19.66
2022-08-29T01:03:26.680Z,19.64
2022-08-29T01:04:28.878Z,19.60
2022-08-29T01:05:31.624Z,19.69
2022-08-29T01:06:33.946Z,19.61
2022-08-29T01:07:38.022Z,19.69
2022-08-29T01:08:42.600Z,19.71
2022-08-29T01:09:44.742Z,19.72
2022-08-29T01:10:47.275Z,19.71
2022-08-29T01:11:49.816Z,19.68
2022-08-29T01:12:52.001Z,19.70
2022-08-29T01:13:54.836Z,19.64
2022-08-29T01:15:06.815Z,19.61
2022-08-29T01:16:11.952Z,19.48
2022-08-29T01:17:18.250Z,19.52
2022-08-29T01:18:21.179Z,19.62
2022-08-29T01:20:00.513Z,19.63
2022-08-29T01:21:21.485Z,19.64
2022-08-29T01:22:39.269Z,19.60
2022-08-29T01:24:11.366Z,19.55
2022-08-29T01:25:17.084Z,19.52
2022-08-29T01:26:20.309Z,19.42
2022-08-29T01:27:25.968Z,19.43
2022-08-29T01:28:37.586Z,19.41
2022-08-29T01:29:40.786Z,19.38
2022-08-29T01:31:14.217Z,19.33
2022-08-29T01:32:18.445Z,19.38
2022-08-29T01:33:21.592Z,19.41
2022-08-29T01:34:26.580Z,19.34
2022-08-29T01:35:29.178Z,19.39
2022-08-29T01:36:47.354Z,19.40
2022-08-29T01:37:50.307Z,19.39
2022-08-29T01:38:52.618Z,19.36
2022-08-29T01:39:54.670Z,19.30
2022-08-29T01:40:58.455Z,19.35
2022-08-29T01:42:03.784Z,19.39
2022-08-29T01:43:05.908Z,19.40
2022-08-29T01:44:11.421Z,19.33
2022-08-29T01:45:13.521Z,19.26
2022-08-29T01:46:20.255Z,19.18
2022-08-29T01:47:25.076Z,19.02
2022-08-29T01:48:27.206Z,18.90
2022-08-29T01:49:31.088Z,18.93
2022-08-29T01:50:34.011Z,18.94
2022-08-29T01:51:37.153Z,18.88
2022-08-29T01:52:40.951Z,18.80
2022-08-29T01:53:44.106Z,18.74
2022-08-29T01:54:46.622Z,18.71
2022-08-29T01:55:48.679Z,18.66
2022-08-29T01:56:52.576Z,18.73
2022-08-29T01:57:55.018Z,18.83
2022-08-29T01:59:00.727Z,18.89
2022-08-29T02:00:05.817Z,18.82
2022-08-29T02:01:10.307Z,18.81
2022-08-29T02:02:20.254Z,18.81
2022-08-29T02:03:22.590Z,18.81
2022-08-29T02:04:26.012Z,18.78
2022-08-29T02:05:29.465Z,18.81
2022-08-29T02:06:33.430Z,18.88
2022-08-29T02:07:35.599Z,18.82
2022-08-29T02:08:38.736Z,18.73
2022-08-29T02:09:45.534Z,18.83
2022-08-29T02:10:44.943Z,18.87
2022-08-29T02:11:47.093Z,18.81
2022-08-29T02:12:49.236Z,18.82
2022-08-29T02:13:57.418Z,18.87
2022-08-29T02:15:00.250Z,18.92
2022-08-29T02:16:03.302Z,19.05
2022-08-29T02:17:06.882Z,18.97
2022-08-29T02:18:09.132Z,18.95
2022-08-29T02:19:11.735Z,18.99
2022-08-29T02:20:15.598Z,18.98
2022-08-29T02:21:20.789Z,18.96
2022-08-29T02:22:22.999Z,19.03
2022-08-29T02:23:30.808Z,19.07
2022-08-29T02:24:30.609Z,19.08
2022-08-29T02:25:32.590Z,19.04
2022-08-29T02:26:36.451Z,18.92
2022-08-29T02:27:39.067Z,18.93
2022-08-29T02:28:41.226Z,18.86
2022-08-29T02:29:43.426Z,18.85
2022-08-29T02:30:48.754Z,18.86
2022-08-29T02:31:53.185Z,18.85
2022-08-29T02:32:55.488Z,18.81
2022-08-29T02:33:57.543Z,18.78
2022-08-29T02:34:59.730Z,18.81
2022-08-29T02:36:04.165Z,18.85
2022-08-29T02:37:06.884Z,18.85
2022-08-29T02:38:10.896Z,18.82
2022-08-29T02:39:13.072Z,18.79
2022-08-29T02:40:15.983Z,18.76
2022-08-29T02:41:18.306Z,18.75
2022-08-29T02:42:20.544Z,18.77
2022-08-29T02:43:22.991Z,18.80
2022-08-29T02:44:25.046Z,18.78
2022-08-29T02:45:27.683Z,18.79
2022-08-29T02:46:30.633Z,18.78
2022-08-29T02:47:33.632Z,18.77
2022-08-29T02:48:35.789Z,18.77
2022-08-29T02:49:37.853Z,18.79
2022-08-29T02:50:48.375Z,18.82
2022-08-29T02:51:50.590Z,18.83
2022-08-29T02:52:53.150Z,18.84
2022-08-29T02:53:55.909Z,18.80
2022-08-29T02:54:57.929Z,18.84
2022-08-29T02:56:00.008Z,18.80
2022-08-29T02:57:02.255Z,18.76
2022-08-29T02:58:05.295Z,18.76
2022-08-29T02:59:08.029Z,18.74
2022-08-29T03:00:18.088Z,18.73
2022-08-29T03:01:22.339Z,18.71
2022-08-29T03:02:24.914Z,18.77
2022-08-29T03:03:26.963Z,18.81
2022-08-29T03:04:29.128Z,18.83
2022-08-29T03:05:33.144Z,18.80
2022-08-29T03:06:35.366Z,18.80
2022-08-29T03:07:38.113Z,18.81
2022-08-29T03:08:40.167Z,18.83
2022-08-29T03:09:42.232Z,18.81
2022-08-29T03:10:44.747Z,18.90
2022-08-29T03:11:46.906Z,18.96
2022-08-29T03:12:50.492Z,18.93
2022-08-29T03:13:52.626Z,18.93
2022-08-29T03:14:56.637Z,18.96
2022-08-29T03:15:59.235Z,18.89
2022-08-29T03:17:01.558Z,18.88
2022-08-29T03:18:04.247Z,18.88
2022-08-29T03:19:06.300Z,18.72
2022-08-29T03:20:10.964Z,18.72
2022-08-29T03:21:15.887Z,18.73
2022-08-29T03:22:18.548Z,18.80
2022-08-29T03:23:21.090Z,18.88
2022-08-29T03:24:27.017Z,18.86
2022-08-29T03:25:27.664Z,18.88
2022-08-29T03:26:29.918Z,18.92
2022-08-29T03:27:33.425Z,18.84
2022-08-29T03:28:35.537Z,18.81
2022-08-29T03:29:37.623Z,18.78
2022-08-29T03:30:40.304Z,18.82
2022-08-29T03:31:42.565Z,18.86
2022-08-29T03:32:44.866Z,18.83
2022-08-29T03:33:47.209Z,18.82
2022-08-29T03:34:49.211Z,18.89
2022-08-29T03:35:51.163Z,18.94
2022-08-29T03:36:54.201Z,18.99
2022-08-29T03:37:57.125Z,19.01
2022-08-29T03:38:59.236Z,19.01
2022-08-29T03:40:03.084Z,18.96
2022-08-29T03:41:07.008Z,18.92
2022-08-29T03:42:09.512Z,18.92
2022-08-29T03:43:11.544Z,18.95
2022-08-29T03:44:14.010Z,18.89
2022-08-29T03:45:18.934Z,18.91
2022-08-29T03:46:22.086Z,18.97
2022-08-29T03:47:24.617Z,18.92
2022-08-29T03:48:27.232Z,18.94
2022-08-29T03:49:29.786Z,18.97
2022-08-29T03:50:32.472Z,19.03
2022-08-29T03:51:35.439Z,19.03
2022-08-29T03:52:37.563Z,19.02
2022-08-29T03:53:41.740Z,18.97
2022-08-29T03:54:43.700Z,18.91
2022-08-29T03:55:45.840Z,18.92
2022-08-29T03:56:48.689Z,18.92
2022-08-29T03:57:51.154Z,18.86
2022-08-29T03:58:54.452Z,18.90
2022-08-29T03:59:56.531Z,18.87
2022-08-29T04:00:59.211Z,18.89
2022-08-29T04:02:01.934Z,18.92
2022-08-29T04:03:04.270Z,18.84
2022-08-29T04:04:06.393Z,18.84
2022-08-29T04:05:09.610Z,18.78
2022-08-29T04:06:12.287Z,18.87
2022-08-29T04:07:15.273Z,18.82
2022-08-29T04:08:17.426Z,18.87
2022-08-29T04:09:19.959Z,18.79
2022-08-29T04:10:26.133Z,18.64
2022-08-29T04:11:28.418Z,18.66
2022-08-29T04:12:30.478Z,18.68
2022-08-29T04:13:32.419Z,18.62
2022-08-29T04:14:34.941Z,18.61
2022-08-29T04:15:39.993Z,18.64
2022-08-29T04:16:45.827Z,18.68
2022-08-29T04:17:51.075Z,18.66
2022-08-29T04:18:54.556Z,18.72
2022-08-29T04:19:56.729Z,18.80
2022-08-29T04:21:01.540Z,18.85
2022-08-29T04:22:05.058Z,18.93
2022-08-29T04:23:07.860Z,18.98
2022-08-29T04:24:09.944Z,18.99
2022-08-29T04:25:13.478Z,18.99
2022-08-29T04:27:22.939Z,18.99
2022-08-29T04:28:25.482Z,18.99
2022-08-29T04:29:27.652Z,19.03
2022-08-29T04:30:30.090Z,19.11
2022-08-29T04:31:32.460Z,19.07
2022-08-29T04:32:34.714Z,19.12
2022-08-29T04:33:37.270Z,19.08
2022-08-29T04:34:39.133Z,19.12
2022-08-29T04:35:41.039Z,19.05
2022-08-29T04:36:44.406Z,19.14
2022-08-29T04:37:47.225Z,19.08
2022-08-29T04:38:49.339Z,19.09
2022-08-29T04:39:52.462Z,19.13
2022-08-29T04:40:54.658Z,19.11
2022-08-29T04:41:56.699Z,19.13
2022-08-29T04:42:58.766Z,19.12
2022-08-29T04:44:01.126Z,19.13
2022-08-29T04:45:05.185Z,19.13
2022-08-29T04:46:07.877Z,19.17
2022-08-29T04:47:11.819Z,19.20
2022-08-29T04:48:14.475Z,19.27
2022-08-29T04:49:16.582Z,19.27
2022-08-29T04:50:22.696Z,19.28
2022-08-29T04:51:26.214Z,19.31
2022-08-29T04:52:28.351Z,19.34
2022-08-29T04:53:30.426Z,19.36
2022-08-29T04:54:32.395Z,19.43
2022-08-29T04:55:34.960Z,19.42
2022-08-29T04:56:43.643Z,19.40
2022-08-29T04:57:43.491Z,19.41
2022-08-29T04:58:46.351Z,19.40
2022-08-29T04:59:57.581Z,19.38
2022-08-29T05:01:00.787Z,19.42
2022-08-29T05:02:02.864Z,19.49
2022-08-29T05:03:04.975Z,19.58
2022-08-29T05:04:10.213Z,19.56
2022-08-29T05:05:14.175Z,19.63
2022-08-29T05:06:22.501Z,19.64
2022-08-29T05:07:26.055Z,19.60
2022-08-29T05:08:29.558Z,19.67
2022-08-29T05:09:32.730Z,19.72
2022-08-29T05:10:37.272Z,19.71
2022-08-29T05:11:39.533Z,19.69
2022-08-29T05:12:42.743Z,19.70
2022-08-29T05:13:46.143Z,19.73
2022-08-29T05:14:48.237Z,19.71
2022-08-29T05:15:50.988Z,19.77
2022-08-29T05:16:53.238Z,19.77
2022-08-29T05:17:55.235Z,19.79
2022-08-29T05:18:59.444Z,19.75
2022-08-29T05:20:03.809Z,19.77
2022-08-29T05:21:06.318Z,19.79
2022-08-29T05:22:09.449Z,19.79
2022-08-29T05:23:13.042Z,19.80
2022-08-29T05:24:16.835Z,19.82
2022-08-29T05:25:18.966Z,19.90
2022-08-29T05:26:21.880Z,19.91
2022-08-29T05:27:25.025Z,19.94
2022-08-29T05:28:28.398Z,19.91
2022-08-29T05:29:30.543Z,19.93
2022-08-29T05:30:35.093Z,19.99
2022-08-29T05:31:39.406Z,19.98
2022-08-29T05:32:41.856Z,20.01
2022-08-29T05:33:44.003Z,20.02
2022-08-29T05:34:47.969Z,20.06
2022-08-29T05:35:50.138Z,20.13
2022-08-29T05:36:52.704Z,20.18
2022-08-29T05:37:54.760Z,20.20
2022-08-29T05:38:57.220Z,20.26
2022-08-29T05:39:59.209Z,20.26
2022-08-29T05:41:01.685Z,20.31
2022-08-29T05:42:06.620Z,20.33
2022-08-29T05:43:09.728Z,20.34
2022-08-29T05:44:12.448Z,20.36
2022-08-29T05:45:14.605Z,20.39
2022-08-29T05:46:20.209Z,20.39
2022-08-29T05:47:22.726Z,20.44
2022-08-29T05:48:24.837Z,20.45
2022-08-29T05:49:27.157Z,20.49
2022-08-29T05:50:30.926Z,20.54
2022-08-29T05:51:39.356Z,20.58
2022-08-29T05:52:38.614Z,20.64
2022-08-29T05:53:40.687Z,20.64
2022-08-29T05:54:43.942Z,20.70
2022-08-29T05:55:46.012Z,20.73
2022-08-29T05:56:49.786Z,20.73
2022-08-29T05:57:53.561Z,20.76
2022-08-29T05:58:56.006Z,20.77
2022-08-29T05:59:58.046Z,20.75
2022-08-29T06:01:00.285Z,20.80
2022-08-29T06:02:07.422Z,20.82
2022-08-29T06:03:12.736Z,20.86
2022-08-29T06:04:15.245Z,20.90
2022-08-29T06:05:18.697Z,20.92
2022-08-29T06:06:23.415Z,20.95
2022-08-29T06:07:26.189Z,20.94
2022-08-29T06:08:28.248Z,20.94
2022-08-29T06:09:30.502Z,20.98
2022-08-29T06:10:33.043Z,21.01
2022-08-29T06:11:35.744Z,21.01
2022-08-29T06:12:38.238Z,21.07
2022-08-29T06:13:40.301Z,21.09
2022-08-29T06:14:42.534Z,21.09
2022-08-29T06:15:47.016Z,21.13
2022-08-29T06:16:50.436Z,21.12
2022-08-29T06:17:52.524Z,21.13
2022-08-29T06:18:56.519Z,21.14
2022-08-29T06:19:58.499Z,21.17
2022-08-29T06:21:04.816Z,21.36
2022-08-29T06:22:10.177Z,21.57
2022-08-29T06:23:13.535Z,21.55
2022-08-29T06:24:17.534Z,21.59
2022-08-29T06:25:38.444Z,21.64
2022-08-29T06:26:24.369Z,21.73
2022-08-29T06:27:26.426Z,21.63
2022-08-29T06:28:31.450Z,21.73
2022-08-29T06:29:38.454Z,21.78
2022-08-29T06:30:39.023Z,21.78
2022-08-29T06:31:41.138Z,21.78
2022-08-29T06:32:43.202Z,21.81
2022-08-29T06:33:45.253Z,21.85
2022-08-29T06:34:47.303Z,21.93
2022-08-29T06:35:49.806Z,21.99
2022-08-29T06:36:52.207Z,22.04
2022-08-29T06:37:54.271Z,22.02
2022-08-29T06:38:58.617Z,21.99
2022-08-29T06:40:00.679Z,22.00
2022-08-29T06:41:09.239Z,22.03
2022-08-29T06:42:11.826Z,22.05
2022-08-29T06:43:15.515Z,22.07
2022-08-29T06:44:17.583Z,22.03
2022-08-29T06:45:19.632Z,21.99
2022-08-29T06:46:32.516Z,22.01
2022-08-29T06:47:34.735Z,22.02
2022-08-29T06:48:37.874Z,22.05
2022-08-29T06:49:42.984Z,22.13
2022-08-29T06:50:45.746Z,22.23
2022-08-29T06:51:54.286Z,22.31
2022-08-29T06:52:55.758Z,22.33
2022-08-29T06:54:00.857Z,22.21
2022-08-29T06:55:03.925Z,22.22
2022-08-29T06:56:11.577Z,22.14
2022-08-29T06:57:12.743Z,22.14
2022-08-29T06:58:15.384Z,22.23
2022-08-29T06:59:19.722Z,22.31
2022-08-29T07:00:22.911Z,22.39
2022-08-29T07:01:25.399Z,22.43
2022-08-29T07:02:28.076Z,22.47
2022-08-29T07:03:30.174Z,22.56
2022-08-29T07:04:32.218Z,22.63
2022-08-29T07:05:34.727Z,22.69
2022-08-29T07:06:37.329Z,22.78
2022-08-29T07:07:39.491Z,22.90
2022-08-29T07:08:53.261Z,22.94
2022-08-29T07:09:46.479Z,23.04
2022-08-29T07:10:48.816Z,23.04
2022-08-29T07:11:50.853Z,23.04
2022-08-29T07:12:53.331Z,23.07
2022-08-29T07:13:58.174Z,23.17
2022-08-29T07:15:00.801Z,23.07
2022-08-29T07:16:05.101Z,23.11
2022-08-29T07:17:08.021Z,23.11
2022-08-29T07:18:10.156Z,23.17
2022-08-29T07:19:12.097Z,23.20
2022-08-29T07:20:16.764Z,23.24
2022-08-29T07:21:22.547Z,23.30
2022-08-29T07:22:24.685Z,23.30
2022-08-29T07:23:26.663Z,23.33
2022-08-29T07:24:30.144Z,23.38
2022-08-29T07:25:33.126Z,23.45
2022-08-29T07:26:41.863Z,23.50
2022-08-29T07:27:53.376Z,23.55
2022-08-29T07:28:56.580Z,23.61
2022-08-29T07:29:59.788Z,23.69
2022-08-29T07:31:04.348Z,23.73
2022-08-29T07:32:08.417Z,23.78
2022-08-29T07:33:13.436Z,23.84
2022-08-29T07:34:20.436Z,23.92
2022-08-29T07:35:30.098Z,23.95
2022-08-29T07:36:26.021Z,23.97
2022-08-29T07:37:27.989Z,24.01
2022-08-29T07:38:32.167Z,24.06
2022-08-29T07:39:36.637Z,24.13
2022-08-29T07:40:38.880Z,24.16
2022-08-29T07:41:44.055Z,24.17
2022-08-29T07:42:46.743Z,24.18
2022-08-29T07:43:49.165Z,24.20
2022-08-29T07:44:51.237Z,24.24
2022-08-29T07:45:53.510Z,24.28
2022-08-29T07:46:58.935Z,24.30
2022-08-29T07:48:02.695Z,24.39
2022-08-29T07:49:07.738Z,24.48
2022-08-29T07:50:13.262Z,24.58
2022-08-29T07:51:18.479Z,24.68
2022-08-29T07:52:25.944Z,24.72
2022-08-29T07:53:28.047Z,24.74
2022-08-29T07:54:30.400Z,24.65
2022-08-29T07:55:32.966Z,24.65
2022-08-29T07:56:40.781Z,24.65
2022-08-29T07:57:43.050Z,24.63
2022-08-29T07:58:45.936Z,24.74
2022-08-29T07:59:48.433Z,24.77
2022-08-29T08:00:51.172Z,24.85
2022-08-29T08:01:55.079Z,24.85
2022-08-29T08:02:57.266Z,24.89
2022-08-29T08:03:59.605Z,24.96
2022-08-29T08:05:01.658Z,25.00
2022-08-29T08:06:07.261Z,25.08
2022-08-29T08:07:13.600Z,25.03
2022-08-29T08:08:15.211Z,25.02
2022-08-29T08:09:17.032Z,25.01
2022-08-29T08:10:20.055Z,25.09
2022-08-29T08:11:24.016Z,25.11
2022-08-29T08:12:26.131Z,25.12
2022-08-29T08:13:28.210Z,25.23
2022-08-29T08:14:35.070Z,25.31
2022-08-29T08:15:36.122Z,25.33
2022-08-29T08:16:38.333Z,25.38
2022-08-29T08:17:44.204Z,25.44
2022-08-29T08:18:48.914Z,25.53
2022-08-29T08:19:54.108Z,25.53
2022-08-29T08:20:56.445Z,25.48
2022-08-29T08:21:59.602Z,25.50
2022-08-29T08:23:01.698Z,25.52
2022-08-29T08:24:04.436Z,25.43
2022-08-29T08:25:07.800Z,25.37
2022-08-29T08:26:12.108Z,25.36
2022-08-29T08:27:14.743Z,25.35
2022-08-29T08:28:16.977Z,25.48
2022-08-29T08:29:19.672Z,25.42
2022-08-29T08:30:23.147Z,25.57
2022-08-29T08:31:27.370Z,25.62
2022-08-29T08:32:32.369Z,25.62
2022-08-29T08:33:37.390Z,25.74
2022-08-29T08:34:39.612Z,25.82
2022-08-29T08:35:42.197Z,25.92
2022-08-29T08:36:45.009Z,25.98
2022-08-29T08:37:47.071Z,26.03
2022-08-29T08:38:51.280Z,25.99
2022-08-29T08:39:57.120Z,26.03
2022-08-29T08:41:27.066Z,26.10
2022-08-29T08:42:42.776Z,25.95
2022-08-29T08:43:57.454Z,26.04
2022-08-29T08:45:15.351Z,26.22
2022-08-29T08:46:28.680Z,26.28
2022-08-29T08:47:40.504Z,26.24
2022-08-29T08:48:44.717Z,26.35
2022-08-29T08:49:50.396Z,26.31
2022-08-29T08:51:08.426Z,26.24
2022-08-29T08:52:14.089Z,26.29
2022-08-29T08:53:19.745Z,26.09
2022-08-29T08:54:25.395Z,26.14
2022-08-29T08:55:50.116Z,26.31
2022-08-29T08:57:01.376Z,26.42
2022-08-29T08:58:05.165Z,26.22
2022-08-29T08:59:13.816Z,26.19
2022-08-29T09:00:16.729Z,26.42
2022-08-29T09:01:22.713Z,26.35
2022-08-29T09:02:46.623Z,26.40
2022-08-29T09:04:05.623Z,26.44
2022-08-29T09:05:30.379Z,26.54
2022-08-29T09:06:39.813Z,26.62
2022-08-29T09:08:03.545Z,26.70
2022-08-29T09:09:44.943Z,26.71
2022-08-29T09:11:02.359Z,26.81
2022-08-29T09:12:20.783Z,26.85
2022-08-29T09:15:03.089Z,27.03
2022-08-29T09:16:09.541Z,26.87
2022-08-29T09:17:18.370Z,26.89
2022-08-29T09:18:24.250Z,26.93
2022-08-29T09:19:27.110Z,26.87
2022-08-29T09:20:32.520Z,26.94
2022-08-29T09:21:42.062Z,26.90
2022-08-29T09:22:45.746Z,26.75
2022-08-29T09:23:51.474Z,26.61
2022-08-29T09:25:03.175Z,26.65
2022-08-29T09:26:06.236Z,26.68
2022-08-29T09:27:30.974Z,26.90
2022-08-29T09:28:33.804Z,27.07
2022-08-29T09:29:36.617Z,26.93
2022-08-29T09:30:41.684Z,26.91
2022-08-29T09:31:43.887Z,26.91
2022-08-29T09:33:01.920Z,26.98
2022-08-29T09:34:12.259Z,27.06
2022-08-29T09:35:27.331Z,26.99
2022-08-29T09:36:47.913Z,27.00
2022-08-29T09:38:19.258Z,27.09
2022-08-29T09:39:31.552Z,27.26
2022-08-29T09:41:02.690Z,27.19
2022-08-29T09:42:14.412Z,27.29
2022-08-29T09:43:27.101Z,27.29
2022-08-29T09:44:34.777Z,27.18
2022-08-29T09:45:36.899Z,27.28
2022-08-29T09:46:41.406Z,27.33
2022-08-29T09:47:44.079Z,27.38
2022-08-29T09:48:55.778Z,27.43
2022-08-29T09:50:13.683Z,27.43
2022-08-29T09:51:28.688Z,27.38
2022-08-29T09:52:31.505Z,27.40
2022-08-29T09:53:33.629Z,27.42
2022-08-29T09:54:35.793Z,27.44
2022-08-29T09:55:42.519Z,27.47
2022-08-29T09:57:06.497Z,27.51
2022-08-29T09:58:11.686Z,27.57
2022-08-29T09:59:32.116Z,27.66
2022-08-29T10:00:40.230Z,27.63
2022-08-29T10:01:42.516Z,27.76
2022-08-29T10:02:50.347Z,27.84
2022-08-29T10:03:58.273Z,27.77
2022-08-29T10:05:05.595Z,27.67
2022-08-29T10:06:16.113Z,27.78
2022-08-29T10:07:24.949Z,27.80
2022-08-29T10:08:30.623Z,27.85
2022-08-29T10:09:32.767Z,27.92
2022-08-29T10:10:36.794Z,27.95
2022-08-29T10:11:50.882Z,28.00
2022-08-29T10:13:12.569Z,27.95
2022-08-29T10:14:18.751Z,28.03
2022-08-29T10:15:49.541Z,28.12
2022-08-29T10:16:47.295Z,28.11
2022-08-29T10:18:05.247Z,28.11
2022-08-29T10:19:13.343Z,28.10
2022-08-29T10:20:16.898Z,28.13
2022-08-29T10:21:28.336Z,28.01
2022-08-29T10:22:49.226Z,28.08
2022-08-29T10:24:00.719Z,28.16
2022-08-29T10:25:06.470Z,28.09
2022-08-29T10:26:13.504Z,28.28
2022-08-29T10:27:28.361Z,28.39
2022-08-29T10:28:52.581Z,28.50
2022-08-29T10:29:58.335Z,28.53
2022-08-29T10:31:13.160Z,28.35
2022-08-29T10:32:42.686Z,28.43
2022-08-29T10:34:00.508Z,28.57
2022-08-29T10:35:19.351Z,28.53
2022-08-29T10:36:34.802Z,28.54
2022-08-29T10:38:11.585Z,28.59
2022-08-29T10:39:26.263Z,28.49
2022-08-29T10:40:43.430Z,28.65
2022-08-29T10:41:50.645Z,28.66
2022-08-29T10:42:59.134Z,28.50
2022-08-29T10:44:23.924Z,28.55
2022-08-29T10:45:35.708Z,28.66
2022-08-29T10:47:04.165Z,28.64
2022-08-29T10:48:12.819Z,28.76
2022-08-29T10:49:30.836Z,28.83
2022-08-29T10:50:44.533Z,28.91
2022-08-29T10:51:50.660Z,28.94
2022-08-29T10:53:03.385Z,28.96
2022-08-29T10:54:15.339Z,29.00
2022-08-29T10:55:46.421Z,29.15
2022-08-29T10:56:51.378Z,29.20
2022-08-29T10:58:14.231Z,29.11
2022-08-29T10:59:50.717Z,29.10
2022-08-29T11:00:56.580Z,29.15
2022-08-29T11:03:18.667Z,29.42
2022-08-29T11:04:31.145Z,29.29
2022-08-29T11:05:36.782Z,29.35
2022-08-29T11:06:42.645Z,29.36
2022-08-29T11:09:12.316Z,29.37
2022-08-29T11:10:19.578Z,29.27
2022-08-29T11:11:25.802Z,29.35
2022-08-29T11:12:40.018Z,29.36
2022-08-29T11:13:46.568Z,29.39
2022-08-29T11:16:23.065Z,29.48
2022-08-29T11:17:29.126Z,29.39
2022-08-29T11:18:43.847Z,29.40
2022-08-29T11:20:04.834Z,29.43
2022-08-29T11:21:16.466Z,29.29
2022-08-29T11:22:29.952Z,29.39
2022-08-29T11:23:47.396Z,29.58
2022-08-29T11:24:58.811Z,29.69
2022-08-29T11:26:04.468Z,29.59
2022-08-29T11:27:25.266Z,29.59
2022-08-29T11:28:48.853Z,29.59
2022-08-29T11:29:55.972Z,29.76
2022-08-29T11:31:13.577Z,30.03
2022-08-29T11:32:28.296Z,30.13
2022-08-29T11:33:39.914Z,30.08
2022-08-29T11:34:54.487Z,30.22
2022-08-29T11:36:35.482Z,30.48
2022-08-29T11:37:49.013Z,30.70
2022-08-29T11:38:57.380Z,30.26
2022-08-29T11:41:38.281Z,30.31
2022-08-29T11:42:51.849Z,30.27
2022-08-29T11:43:51.460Z,30.30
2022-08-29T11:44:57.043Z,30.30
2022-08-29T11:46:03.201Z,30.38
2022-08-29T11:47:31.716Z,30.49
2022-08-29T11:48:41.241Z,30.39
2022-08-29T11:49:47.324Z,30.26
2022-08-29T11:50:50.289Z,30.34
2022-08-29T11:51:56.296Z,30.31
2022-08-29T11:53:11.782Z,30.40
2022-08-29T11:54:30.239Z,30.31
2022-08-29T11:55:41.392Z,30.33
2022-08-29T11:56:45.991Z,30.39
2022-08-29T11:57:51.395Z,30.15
2022-08-29T11:58:56.567Z,30.24
2022-08-29T12:00:00.191Z,30.20
2022-08-29T12:01:02.638Z,30.33
2022-08-29T12:02:08.133Z,30.48
2022-08-29T12:03:35.482Z,30.74
2022-08-29T12:04:56.678Z,30.82
2022-08-29T12:06:19.697Z,31.14
2022-08-29T12:07:25.349Z,31.31
2022-08-29T12:08:37.170Z,31.15
2022-08-29T12:09:44.430Z,31.03
2022-08-29T12:10:54.302Z,30.89
2022-08-29T12:12:06.022Z,30.93
2022-08-29T12:13:08.185Z,31.22
2022-08-29T12:14:14.918Z,30.98
2022-08-29T12:15:35.903Z,30.79
2022-08-29T12:16:51.377Z,30.78
2022-08-29T12:18:02.421Z,30.73
2022-08-29T12:19:04.470Z,30.41
2022-08-29T12:20:10.694Z,30.29
2022-08-29T12:21:40.960Z,30.16
2022-08-29T12:23:05.926Z,30.39
2022-08-29T12:24:26.837Z,30.57
2022-08-29T12:26:59.740Z,30.60
2022-08-29T12:28:06.505Z,30.49
2022-08-29T12:29:31.066Z,30.36
2022-08-29T12:30:42.638Z,30.25
2022-08-29T12:32:22.477Z,30.36
2022-08-29T12:33:43.713Z,30.53
2022-08-29T12:35:14.036Z,30.72
2022-08-29T12:36:31.879Z,31.01
2022-08-29T12:37:57.254Z,31.21
2022-08-29T12:39:19.856Z,31.57
2022-08-29T12:40:29.535Z,31.35
2022-08-29T12:41:45.011Z,31.34
2022-08-29T12:42:57.174Z,31.03
2022-08-29T12:44:04.021Z,31.00
2022-08-29T12:45:13.985Z,30.62
2022-08-29T12:46:24.238Z,30.52
2022-08-29T12:47:29.914Z,30.52
2022-08-29T12:48:36.064Z,30.73
2022-08-29T12:49:48.322Z,30.84
2022-08-29T12:50:51.791Z,30.97
2022-08-29T12:51:57.288Z,31.02
2022-08-29T12:53:02.944Z,31.03
2022-08-29T12:54:06.559Z,31.24
2022-08-29T12:55:28.957Z,31.52
2022-08-29T12:56:33.637Z,31.59
2022-08-29T12:57:37.069Z,31.64
2022-08-29T12:58:42.480Z,31.70
2022-08-29T12:59:51.516Z,31.84
2022-08-29T13:00:54.020Z,31.70
2022-08-29T13:01:59.574Z,31.84
2022-08-29T13:03:15.175Z,32.12
2022-08-29T13:04:18.287Z,32.33
2022-08-29T13:05:28.399Z,32.13
2022-08-29T13:06:29.581Z,32.10
2022-08-29T13:07:31.754Z,31.66
2022-08-29T13:08:35.850Z,31.73
2022-08-29T13:09:41.564Z,31.82
2022-08-29T13:11:02.363Z,31.70
2022-08-29T13:12:14.535Z,31.61
2022-08-29T13:13:19.725Z,31.53
2022-08-29T13:14:21.862Z,31.68
2022-08-29T13:15:29.669Z,31.96
2022-08-29T13:16:31.651Z,32.10
2022-08-29T13:17:36.859Z,32.00
2022-08-29T13:18:53.924Z,31.89
2022-08-29T13:20:04.533Z,31.85
2022-08-29T13:21:19.274Z,32.01
2022-08-29T13:22:21.409Z,32.26
2022-08-29T13:23:34.267Z,32.27
2022-08-29T13:24:36.288Z,32.50
2022-08-29T13:26:12.568Z,32.63
2022-08-29T13:27:18.219Z,32.87
2022-08-29T13:28:39.249Z,32.50
2022-08-29T13:29:42.222Z,32.43
2022-08-29T13:30:48.678Z,32.37
2022-08-29T13:32:09.152Z,32.43
2022-08-29T13:33:27.018Z,32.04
2022-08-29T13:34:28.598Z,31.93
2022-08-29T13:35:32.801Z,31.87
2022-08-29T13:36:54.870Z,31.90
2022-08-29T13:38:19.120Z,31.95
2022-08-29T13:39:24.778Z,32.18
2022-08-29T13:40:40.264Z,32.16
2022-08-29T13:41:51.745Z,32.37
2022-08-29T13:42:54.158Z,32.17
2022-08-29T13:43:56.164Z,32.18
2022-08-29T13:45:01.698Z,31.72
2022-08-29T13:46:08.876Z,31.79
2022-08-29T13:47:17.178Z,31.77
2022-08-29T13:48:19.553Z,31.72
2022-08-29T13:49:24.819Z,31.42
2022-08-29T13:50:28.964Z,31.45
2022-08-29T13:51:31.018Z,31.21
2022-08-29T13:52:33.111Z,30.92
2022-08-29T13:53:35.293Z,30.87
2022-08-29T13:54:38.389Z,30.81
2022-08-29T13:55:41.518Z,30.74
2022-08-29T13:56:49.868Z,30.70
2022-08-29T13:57:53.860Z,30.75
2022-08-29T13:58:56.639Z,30.75
2022-08-29T13:59:59.370Z,30.71
2022-08-29T14:01:29.486Z,30.44
2022-08-29T14:02:09.378Z,30.25
2022-08-29T14:03:12.135Z,30.34
2022-08-29T14:04:36.757Z,30.33
2022-08-29T14:05:18.480Z,30.33
2022-08-29T14:06:23.637Z,30.27
2022-08-29T14:07:29.300Z,30.27
2022-08-29T14:08:31.297Z,30.24
2022-08-29T14:09:39.647Z,30.14
2022-08-29T14:10:42.715Z,30.16
2022-08-29T14:11:45.357Z,30.26
2022-08-29T14:12:47.515Z,30.21
2022-08-29T14:13:49.282Z,30.16
2022-08-29T14:14:51.589Z,30.15
2022-08-29T14:15:54.273Z,30.07
2022-08-29T14:16:57.623Z,29.96
2022-08-29T14:17:59.880Z,29.96
2022-08-29T14:19:02.437Z,29.91
2022-08-29T14:20:06.244Z,29.99
2022-08-29T14:21:08.763Z,30.05
2022-08-29T14:22:12.081Z,29.96
2022-08-29T14:23:15.169Z,29.98
2022-08-29T14:24:17.262Z,29.93
2022-08-29T14:25:19.689Z,29.86